Time;durP1;ratioP1;P1;durP2;ratioP2;P2;SDS_P1;SDS_P2;PMS_P1;PMS_P2;Temp;Humidity;BMP_temperature;BMP_pressure;BME280_temperature;BME280_humidity;BME280_pressure;Samples;Min_cycle;Max_cycle;Signal;HPM_P1;HPM_P2
2021/01/03 00:01:00;;;;;;;17.83;9.25;;;2.10;99.90;;;;;;5070893;28;20063;-75
2021/01/03 00:03:26;;;;;;;16.92;9.38;;;2.00;99.90;;;;;;5069880;28;20665;-75
2021/01/03 00:05:52;;;;;;;17.27;9.20;;;2.00;99.90;;;;;;5062907;28;20029;-74
2021/01/03 00:08:17;;;;;;;20.60;9.98;;;1.90;99.90;;;;;;5067139;28;20048;-75
2021/01/03 00:10:43;;;;;;;18.65;9.40;;;1.90;99.90;;;;;;5060878;28;20021;-75
2021/01/03 00:13:08;;;;;;;18.60;9.77;;;2.00;99.90;;;;;;5070780;28;20024;-74
2021/01/03 00:15:34;;;;;;;21.08;9.65;;;2.10;99.90;;;;;;5062102;28;20020;-75
2021/01/03 00:17:59;;;;;;;22.42;10.50;;;2.10;99.90;;;;;;5070042;28;20054;-74
2021/01/03 00:20:29;;;;;;;18.83;9.68;;;2.10;99.90;;;;;;5069784;28;20032;-75
2021/01/03 00:22:55;;;;;;;22.52;10.80;;;2.30;99.90;;;;;;5070497;28;20037;-74
2021/01/03 00:25:23;;;;;;;22.35;10.98;;;2.40;99.90;;;;;;5069519;28;20091;-75
2021/01/03 00:27:50;;;;;;;22.10;10.55;;;2.30;99.90;;;;;;5067724;28;20028;-74
2021/01/03 00:30:16;;;;;;;20.38;10.60;;;2.30;99.90;;;;;;5060634;28;20083;-74
2021/01/03 00:32:42;;;;;;;20.63;10.02;;;2.30;99.90;;;;;;5060658;28;20471;-75
2021/01/03 00:35:10;;;;;;;20.08;9.50;;;2.30;99.90;;;;;;5060968;28;20032;-74
2021/01/03 00:37:36;;;;;;;20.05;10.18;;;2.40;99.90;;;;;;5069640;28;20103;-74
2021/01/03 00:40:02;;;;;;;19.35;10.00;;;2.50;99.90;;;;;;5069796;28;20103;-75
2021/01/03 00:42:27;;;;;;;22.48;9.98;;;2.40;99.90;;;;;;5070189;28;20056;-74
2021/01/03 00:44:53;;;;;;;23.73;11.15;;;2.50;99.90;;;;;;5068612;28;20503;-75
2021/01/03 00:47:18;;;;;;;20.83;10.73;;;2.40;99.90;;;;;;5065636;28;20095;-74
2021/01/03 00:49:44;;;;;;;21.52;10.00;;;2.40;99.90;;;;;;5062148;28;20025;-74
2021/01/03 00:52:09;;;;;;;22.25;11.15;;;2.50;99.90;;;;;;5069547;28;20540;-75
2021/01/03 00:54:35;;;;;;;23.92;11.18;;;2.40;99.90;;;;;;5061832;28;20031;-74
2021/01/03 00:57:00;;;;;;;23.27;11.02;;;2.30;99.90;;;;;;5067503;28;20046;-74
2021/01/03 00:59:25;;;;;;;22.27;11.10;;;2.30;99.90;;;;;;5068882;28;20032;-73
2021/01/03 01:01:51;;;;;;;26.20;11.77;;;2.20;99.90;;;;;;5070079;28;20097;-74
2021/01/03 01:04:17;;;;;;;23.52;10.88;;;2.20;99.90;;;;;;5058353;28;20033;-74
2021/01/03 01:06:42;;;;;;;23.08;10.27;;;2.10;99.90;;;;;;5058811;28;20024;-74
2021/01/03 01:09:08;;;;;;;23.55;10.80;;;2.00;99.90;;;;;;5069247;28;20116;-74
2021/01/03 01:11:38;;;;;;;22.50;10.30;;;2.10;99.90;;;;;;5069049;28;20458;-75
2021/01/03 01:14:03;;;;;;;26.30;10.68;;;1.90;99.90;;;;;;5069222;28;20020;-74
2021/01/03 01:16:29;;;;;;;22.33;10.48;;;1.80;99.90;;;;;;5062218;28;20077;-74
2021/01/03 01:18:54;;;;;;;24.88;10.43;;;1.90;99.90;;;;;;5068611;28;20383;-74
2021/01/03 01:21:20;;;;;;;25.10;10.63;;;1.90;99.90;;;;;;5068955;28;20040;-73
2021/01/03 01:23:46;;;;;;;24.05;10.80;;;1.80;99.90;;;;;;5066989;28;20035;-74
2021/01/03 01:26:11;;;;;;;23.77;10.00;;;1.90;99.90;;;;;;5067539;28;20043;-74
2021/01/03 01:28:37;;;;;;;25.48;10.98;;;1.80;99.90;;;;;;5065091;28;20507;-74
2021/01/03 01:31:02;;;;;;;24.20;10.75;;;1.80;99.90;;;;;;5066777;28;20048;-74
2021/01/03 01:33:27;;;;;;;25.30;11.20;;;1.80;99.90;;;;;;5068890;28;20498;-74
2021/01/03 01:35:53;;;;;;;22.27;10.20;;;1.80;99.90;;;;;;5067796;28;20021;-74
2021/01/03 01:38:19;;;;;;;28.98;10.98;;;1.80;99.90;;;;;;5068902;28;20052;-73
2021/01/03 01:40:44;;;;;;;23.95;11.18;;;1.80;99.90;;;;;;5067789;28;20099;-74
2021/01/03 01:43:14;;;;;;;28.83;11.00;;;1.80;99.90;;;;;;5068837;28;20725;-74
2021/01/03 01:45:42;;;;;;;27.02;11.73;;;1.80;99.90;;;;;;5055133;28;20032;-73
2021/01/03 01:48:13;;;;;;;25.73;10.85;;;1.80;99.90;;;;;;5063455;28;20029;-73
2021/01/03 01:50:45;;;;;;;29.83;11.45;;;1.80;99.90;;;;;;5064956;28;20230;-73
2021/01/03 01:53:21;;;;;;;29.85;11.30;;;1.90;99.90;;;;;;5067619;28;20040;-74
2021/01/03 01:55:53;;;;;;;25.98;10.90;;;2.00;99.90;;;;;;5056192;28;20032;-74
2021/01/03 01:58:28;;;;;;;25.80;11.48;;;1.90;99.90;;;;;;5052784;28;20112;-73
2021/01/03 02:01:01;;;;;;;28.45;12.05;;;1.80;99.90;;;;;;5067065;28;20028;-74
2021/01/03 02:03:49;;;;;;;25.58;11.30;;;1.70;99.90;;;;;;5065764;28;20060;-74
2021/01/03 02:06:31;;;;;;;33.42;11.55;;;1.80;99.90;;;;;;5064994;28;20494;-74
2021/01/03 02:09:02;;;;;;;23.08;11.57;;;1.70;99.90;;;;;;5057558;28;20166;-74
2021/01/03 02:11:29;;;;;;;30.85;12.23;;;1.70;99.90;;;;;;5067927;28;20033;-74
2021/01/03 02:13:57;;;;;;;28.52;11.23;;;1.70;99.90;;;;;;5062653;28;20035;-74
2021/01/03 02:16:29;;;;;;;27.58;11.27;;;1.80;99.90;;;;;;5062743;28;20024;-74
2021/01/03 02:18:55;;;;;;;30.23;11.73;;;1.80;99.90;;;;;;5067261;28;20077;-73
2021/01/03 02:21:48;;;;;;;27.67;11.38;;;1.90;99.90;;;;;;5066485;28;20032;-74
2021/01/03 02:24:22;;;;;;;25.17;11.02;;;1.80;99.90;;;;;;5067577;28;20029;-73
2021/01/03 02:27:10;;;;;;;27.98;10.77;;;1.90;99.90;;;;;;5067430;28;20041;-74
2021/01/03 02:29:38;;;;;;;29.58;11.60;;;1.80;99.90;;;;;;5050040;28;20133;-74
2021/01/03 02:32:06;;;;;;;27.52;10.45;;;1.80;99.90;;;;;;5065111;28;20483;-74
2021/01/03 02:34:38;;;;;;;27.75;11.35;;;1.80;99.90;;;;;;5067316;28;20024;-74
2021/01/03 02:37:09;;;;;;;25.55;11.07;;;1.80;99.90;;;;;;5062526;28;20113;-74
2021/01/03 02:39:49;;;;;;;27.23;9.82;;;1.90;99.90;;;;;;5056312;28;20025;-75
2021/01/03 02:42:23;;;;;;;26.60;10.50;;;1.90;99.90;;;;;;5063654;28;20696;-74
2021/01/03 02:44:49;;;;;;;23.98;10.68;;;2.00;99.90;;;;;;5068190;28;20737;-73
2021/01/03 02:47:15;;;;;;;24.90;10.50;;;1.90;99.90;;;;;;5065679;28;20102;-74
2021/01/03 02:49:41;;;;;;;27.48;11.45;;;2.00;99.90;;;;;;5058300;28;20059;-74
2021/01/03 02:52:16;;;;;;;27.27;11.23;;;2.00;99.90;;;;;;5063407;28;20114;-74
2021/01/03 02:54:41;;;;;;;29.90;11.27;;;1.90;99.90;;;;;;5050593;28;20029;-74
2021/01/03 02:57:06;;;;;;;26.17;11.02;;;1.90;99.90;;;;;;5066259;28;20025;-74
2021/01/03 02:59:32;;;;;;;23.05;10.65;;;1.90;99.90;;;;;;5067192;28;20044;-75
2021/01/03 03:01:57;;;;;;;26.38;11.32;;;1.80;99.90;;;;;;5066574;28;20154;-74
2021/01/03 03:04:23;;;;;;;28.73;11.35;;;1.80;99.90;;;;;;5067349;28;20020;-74
2021/01/03 03:06:48;;;;;;;25.33;10.45;;;1.80;99.90;;;;;;5065584;28;20056;-74
2021/01/03 03:09:14;;;;;;;26.02;10.50;;;1.90;99.90;;;;;;5057812;28;20093;-74
2021/01/03 03:11:45;;;;;;;31.88;11.25;;;1.90;99.90;;;;;;5067969;28;20079;-74
2021/01/03 03:14:10;;;;;;;23.80;10.52;;;2.00;99.90;;;;;;5070730;28;20056;-75
2021/01/03 03:16:36;;;;;;;24.15;10.18;;;2.10;99.90;;;;;;5071457;28;20068;-74
2021/01/03 03:19:01;;;;;;;23.80;10.68;;;2.10;99.90;;;;;;5066504;28;20021;-74
2021/01/03 03:21:27;;;;;;;25.92;10.93;;;2.10;99.90;;;;;;5069552;28;20505;-74
2021/01/03 03:23:52;;;;;;;24.63;10.93;;;2.20;99.90;;;;;;5062919;28;20355;-74
2021/01/03 03:26:18;;;;;;;24.38;10.73;;;2.20;99.90;;;;;;5071329;28;20028;-73
2021/01/03 03:28:43;;;;;;;29.63;11.63;;;2.20;99.90;;;;;;5071219;28;20032;-74
2021/01/03 03:31:08;;;;;;;26.40;10.73;;;2.20;99.90;;;;;;5069998;28;20058;-74
2021/01/03 03:33:34;;;;;;;23.65;10.50;;;2.20;99.90;;;;;;5059963;28;20060;-73
2021/01/03 03:36:00;;;;;;;22.63;10.18;;;2.20;99.90;;;;;;5069578;28;20016;-74
2021/01/03 03:38:25;;;;;;;22.17;10.27;;;2.20;99.90;;;;;;5069490;28;20210;-74
2021/01/03 03:40:50;;;;;;;22.30;10.07;;;2.20;99.90;;;;;;5067598;28;20037;-74
2021/01/03 03:43:16;;;;;;;19.58;9.77;;;2.20;99.90;;;;;;5070526;28;20031;-74
2021/01/03 03:45:41;;;;;;;23.33;9.70;;;2.30;99.90;;;;;;5071153;28;20070;-75
2021/01/03 03:48:07;;;;;;;19.55;8.73;;;2.30;99.90;;;;;;5060254;28;20072;-74
2021/01/03 03:50:33;;;;;;;22.00;10.10;;;2.30;99.90;;;;;;5068204;28;20036;-75
2021/01/03 03:52:58;;;;;;;20.55;10.02;;;2.20;99.90;;;;;;5070012;28;20029;-74
2021/01/03 03:55:24;;;;;;;18.20;8.85;;;2.30;99.90;;;;;;5069046;28;20020;-73
2021/01/03 03:57:50;;;;;;;19.00;8.93;;;2.30;99.90;;;;;;5062208;28;20017;-74
2021/01/03 04:00:18;;;;;;;20.52;8.68;;;2.30;99.90;;;;;;5070093;28;20467;-74
2021/01/03 04:02:44;;;;;;;20.33;9.32;;;2.40;99.90;;;;;;5069588;28;20026;-73
2021/01/03 04:05:19;;;;;;;19.88;8.77;;;2.40;99.90;;;;;;5070101;28;20025;-74
2021/01/03 04:07:44;;;;;;;20.77;8.60;;;2.50;99.90;;;;;;5070021;28;20144;-74
2021/01/03 04:10:11;;;;;;;19.92;8.68;;;2.50;99.90;;;;;;5070510;28;20104;-74
2021/01/03 04:12:37;;;;;;;20.67;9.68;;;2.50;99.90;;;;;;5066998;28;20020;-74
2021/01/03 04:15:06;;;;;;;21.33;9.18;;;2.60;99.90;;;;;;5070292;28;20024;-74
2021/01/03 04:17:32;;;;;;;20.08;8.90;;;2.60;99.90;;;;;;5057682;28;20036;-74
2021/01/03 04:19:57;;;;;;;22.17;8.80;;;2.60;99.90;;;;;;5056226;28;20024;-73
2021/01/03 04:22:23;;;;;;;21.35;9.07;;;2.60;99.90;;;;;;5064829;28;20027;-74
2021/01/03 04:24:48;;;;;;;20.02;8.70;;;2.70;99.90;;;;;;5070536;28;20386;-74
2021/01/03 04:27:14;;;;;;;19.80;9.32;;;2.60;99.90;;;;;;5069252;28;20044;-74
2021/01/03 04:29:40;;;;;;;22.42;9.15;;;2.60;99.90;;;;;;5066793;28;20464;-74
2021/01/03 04:32:10;;;;;;;23.42;8.88;;;2.70;99.90;;;;;;5063651;28;20027;-74
2021/01/03 04:34:39;;;;;;;18.90;8.70;;;2.70;99.90;;;;;;5070807;28;20467;-74
2021/01/03 04:37:05;;;;;;;19.73;8.55;;;2.60;99.90;;;;;;5069441;28;20052;-75
2021/01/03 04:39:31;;;;;;;22.80;8.65;;;2.70;99.90;;;;;;5070075;28;20383;-74
2021/01/03 04:42:00;;;;;;;21.55;8.95;;;2.60;99.90;;;;;;5068219;28;20037;-74
2021/01/03 04:44:36;;;;;;;21.33;9.50;;;2.60;99.90;;;;;;5070024;28;20081;-74
2021/01/03 04:47:06;;;;;;;21.10;9.23;;;2.60;99.90;;;;;;5064699;28;20033;-74
2021/01/03 04:49:41;;;;;;;20.70;9.02;;;2.60;99.90;;;;;;5070294;28;20104;-73
2021/01/03 04:52:31;;;;;;;18.27;8.43;;;2.70;99.90;;;;;;5057363;28;20032;-73
2021/01/03 04:55:25;;;;;;;17.92;8.23;;;2.70;99.90;;;;;;5069216;28;20063;-74
2021/01/03 04:58:09;;;;;;;17.17;8.23;;;2.70;99.90;;;;;;5069576;28;20111;-74
2021/01/03 05:00:49;;;;;;;20.70;8.75;;;2.70;99.90;;;;;;5069146;28;20186;-74
2021/01/03 05:03:20;;;;;;;20.83;8.45;;;2.70;99.90;;;;;;5068966;28;20029;-74
2021/01/03 05:05:49;;;;;;;18.88;7.78;;;2.60;99.90;;;;;;5055970;28;20064;-74
2021/01/03 05:08:17;;;;;;;20.70;8.35;;;2.70;99.90;;;;;;5065470;28;20032;-74
2021/01/03 05:10:46;;;;;;;19.77;8.40;;;2.70;99.90;;;;;;5069556;28;20037;-74
2021/01/03 05:13:21;;;;;;;21.88;8.55;;;2.70;99.90;;;;;;5066875;28;20055;-74
2021/01/03 05:15:47;;;;;;;20.83;8.45;;;2.70;99.90;;;;;;5070149;28;20069;-74
2021/01/03 05:18:14;;;;;;;18.77;8.02;;;2.70;99.90;;;;;;5055257;28;20025;-73
2021/01/03 05:20:39;;;;;;;19.92;8.18;;;2.70;99.90;;;;;;5064801;28;20399;-74
2021/01/03 05:23:27;;;;;;;18.55;8.00;;;2.70;99.90;;;;;;5067425;28;20029;-74
2021/01/03 05:25:54;;;;;;;17.52;7.85;;;2.80;99.90;;;;;;5068770;28;20028;-73
2021/01/03 05:28:28;;;;;;;18.95;8.13;;;2.80;99.90;;;;;;5068867;28;20028;-75
2021/01/03 05:31:10;;;;;;;16.73;7.40;;;2.70;99.90;;;;;;5067383;28;20075;-74
2021/01/03 05:33:36;;;;;;;16.63;7.38;;;2.60;99.90;;;;;;5060466;28;20246;-73
2021/01/03 05:36:02;;;;;;;17.55;8.15;;;2.60;99.90;;;;;;5068527;28;20025;-74
2021/01/03 05:38:40;;;;;;;18.73;7.85;;;2.60;99.90;;;;;;5063259;28;20498;-73
2021/01/03 05:41:26;;;;;;;17.35;7.88;;;2.60;99.90;;;;;;5055898;28;20516;-73
2021/01/03 05:44:06;;;;;;;17.45;7.63;;;2.50;99.90;;;;;;5064968;28;20040;-74
2021/01/03 05:46:38;;;;;;;15.75;7.82;;;2.60;99.90;;;;;;5068691;28;20039;-75
2021/01/03 05:49:11;;;;;;;18.40;8.57;;;2.60;99.90;;;;;;5050147;28;20420;-73
2021/01/03 05:51:46;;;;;;;18.80;8.05;;;2.60;99.90;;;;;;5062783;28;20181;-74
2021/01/03 05:54:21;;;;;;;18.42;7.47;;;2.70;99.90;;;;;;5060735;28;20043;-74
2021/01/03 05:56:47;;;;;;;18.92;8.63;;;2.80;99.90;;;;;;5064800;28;20115;-73
2021/01/03 05:59:14;;;;;;;18.13;7.47;;;2.80;99.90;;;;;;5068265;28;20120;-74
2021/01/03 06:01:40;;;;;;;18.60;7.88;;;2.80;99.90;;;;;;5067908;28;20028;-74
2021/01/03 06:04:11;;;;;;;19.13;8.15;;;2.80;99.90;;;;;;5063697;28;20028;-74
2021/01/03 06:06:45;;;;;;;16.98;6.95;;;2.80;99.90;;;;;;5068267;28;20498;-74
2021/01/03 06:09:11;;;;;;;15.55;7.35;;;2.80;99.90;;;;;;5067572;28;20033;-74
2021/01/03 06:11:36;;;;;;;16.48;7.05;;;2.70;99.90;;;;;;5064470;28;20853;-74
2021/01/03 06:14:02;;;;;;;14.57;6.95;;;2.80;99.90;;;;;;5058479;28;20027;-74
2021/01/03 06:16:30;;;;;;;17.63;7.30;;;2.70;99.90;;;;;;5068539;28;20035;-74
2021/01/03 06:19:32;;;;;;;14.95;7.72;;;2.80;99.90;;;;;;5065947;28;20060;-74
2021/01/03 06:21:57;;;;;;;17.27;7.30;;;2.70;99.90;;;;;;5057786;28;20103;-74
2021/01/03 06:24:28;;;;;;;17.00;7.68;;;2.70;99.90;;;;;;5062703;28;20075;-74
2021/01/03 06:27:01;;;;;;;15.73;7.43;;;2.80;99.90;;;;;;5068338;28;20020;-74
2021/01/03 06:29:46;;;;;;;19.08;7.70;;;2.70;99.90;;;;;;5061632;28;20032;-74
2021/01/03 06:32:49;;;;;;;14.45;7.03;;;2.80;99.90;;;;;;5067233;28;20554;-73
2021/01/03 06:35:30;;;;;;;16.10;7.18;;;2.80;99.90;;;;;;5067564;28;20030;-74
2021/01/03 06:38:14;;;;;;;16.05;7.13;;;2.80;99.90;;;;;;5060895;28;20017;-74
2021/01/03 06:40:57;;;;;;;17.58;7.25;;;2.80;99.90;;;;;;5067888;28;20036;-74
2021/01/03 06:43:35;;;;;;;14.52;6.88;;;2.80;99.90;;;;;;5067884;28;20556;-73
2021/01/03 06:46:13;;;;;;;13.07;6.88;;;2.90;99.90;;;;;;5063172;28;20084;-74
2021/01/03 06:49:10;;;;;;;16.13;6.45;;;2.70;99.90;;;;;;5067476;28;20081;-74
2021/01/03 06:52:05;;;;;;;17.10;7.20;;;2.80;99.90;;;;;;5063759;28;20091;-73
2021/01/03 06:54:44;;;;;;;16.60;6.90;;;2.70;99.90;;;;;;5062217;28;20067;-74
2021/01/03 06:57:47;;;;;;;11.65;6.13;;;2.70;99.90;;;;;;5071648;28;20020;-74
2021/01/03 07:00:15;;;;;;;13.30;6.53;;;2.80;99.90;;;;;;5071899;28;20029;-75
2021/01/03 07:02:52;;;;;;;14.18;6.95;;;2.80;99.90;;;;;;5067502;28;20035;-74
2021/01/03 07:05:18;;;;;;;12.43;5.85;;;2.90;99.90;;;;;;5070016;28;20592;-74
2021/01/03 07:08:03;;;;;;;13.30;6.22;;;2.90;99.90;;;;;;5071066;28;20033;-73
2021/01/03 07:10:36;;;;;;;11.30;5.70;;;2.90;99.90;;;;;;5070212;28;20119;-74
2021/01/03 07:13:03;;;;;;;15.57;6.72;;;3.00;99.90;;;;;;5071905;28;20548;-73
2021/01/03 07:15:28;;;;;;;13.00;5.43;;;2.90;99.90;;;;;;5066149;28;20029;-74
2021/01/03 07:17:54;;;;;;;12.63;6.00;;;2.90;99.90;;;;;;5066524;28;20099;-74
2021/01/03 07:20:35;;;;;;;11.45;6.00;;;2.80;99.90;;;;;;5065618;28;20025;-73
2021/01/03 07:23:28;;;;;;;14.45;6.10;;;2.80;99.90;;;;;;5070369;28;20187;-74
2021/01/03 07:26:20;;;;;;;14.65;5.88;;;2.70;99.90;;;;;;5070767;28;20052;-74
2021/01/03 07:28:50;;;;;;;14.50;6.43;;;2.70;99.90;;;;;;5070680;28;20043;-74
2021/01/03 07:31:21;;;;;;;14.32;6.28;;;2.80;99.90;;;;;;5067887;28;20102;-74
2021/01/03 07:34:01;;;;;;;14.02;6.35;;;2.80;99.90;;;;;;5063334;28;20028;-74
2021/01/03 07:36:45;;;;;;;13.23;6.75;;;2.80;99.90;;;;;;5065855;28;20702;-73
2021/01/03 07:39:16;;;;;;;14.75;6.72;;;2.80;99.90;;;;;;5064520;28;20033;-74
2021/01/03 07:41:42;;;;;;;14.02;6.72;;;2.80;99.90;;;;;;5063164;28;20050;-74
2021/01/03 07:44:29;;;;;;;15.02;6.38;;;2.80;99.90;;;;;;5064196;28;20032;-74
2021/01/03 07:46:57;;;;;;;14.70;6.88;;;2.80;99.90;;;;;;5064575;28;20044;-73
2021/01/03 07:49:43;;;;;;;12.65;6.20;;;2.80;99.90;;;;;;5059602;28;20501;-74
2021/01/03 07:52:17;;;;;;;17.75;7.47;;;2.80;99.90;;;;;;5070012;28;20527;-75
2021/01/03 07:54:50;;;;;;;15.13;6.47;;;3.00;99.90;;;;;;5056329;28;20066;-74
2021/01/03 07:57:16;;;;;;;14.48;6.18;;;3.00;99.90;;;;;;5071074;28;20031;-74
2021/01/03 07:59:46;;;;;;;14.40;6.47;;;3.00;99.90;;;;;;5067570;28;20392;-74
2021/01/03 08:02:13;;;;;;;14.02;6.18;;;3.00;99.90;;;;;;5070226;28;20111;-73
2021/01/03 08:04:38;;;;;;;13.27;6.57;;;3.00;99.90;;;;;;5058247;28;20043;-73
2021/01/03 08:07:17;;;;;;;14.02;6.40;;;3.10;99.90;;;;;;5063597;28;20021;-73
2021/01/03 08:09:42;;;;;;;14.40;6.57;;;3.00;99.90;;;;;;5063840;28;20033;-73
2021/01/03 08:12:35;;;;;;;12.38;5.88;;;3.00;99.90;;;;;;5058430;28;20025;-73
2021/01/03 08:15:32;;;;;;;15.68;7.18;;;2.90;99.90;;;;;;5062010;28;20021;-73
2021/01/03 08:18:13;;;;;;;16.65;6.53;;;3.00;99.90;;;;;;5041036;28;20044;-73
2021/01/03 08:20:39;;;;;;;16.77;6.97;;;2.90;99.90;;;;;;5058719;28;20059;-73
2021/01/03 08:23:29;;;;;;;12.38;6.22;;;2.90;99.90;;;;;;5069247;28;20060;-73
2021/01/03 08:26:24;;;;;;;19.23;7.65;;;3.00;99.90;;;;;;5068765;28;20036;-74
2021/01/03 08:29:01;;;;;;;16.25;7.55;;;3.00;99.90;;;;;;5056549;28;20025;-73
2021/01/03 08:31:29;;;;;;;15.95;7.15;;;3.00;99.90;;;;;;5058018;28;20060;-73
2021/01/03 08:33:57;;;;;;;15.38;7.15;;;3.00;99.90;;;;;;5056302;28;20036;-73
2021/01/03 08:36:31;;;;;;;15.88;7.72;;;3.00;99.90;;;;;;5057603;28;20111;-73
2021/01/03 08:39:04;;;;;;;15.55;7.13;;;2.90;99.90;;;;;;5059063;28;20124;-74
2021/01/03 08:41:33;;;;;;;15.50;7.18;;;3.00;99.90;;;;;;5062301;28;20082;-74
2021/01/03 08:43:58;;;;;;;18.30;7.60;;;3.00;99.90;;;;;;5062025;28;20107;-74
2021/01/03 08:46:30;;;;;;;16.17;8.15;;;3.00;99.90;;;;;;5061288;28;20132;-73
2021/01/03 08:49:00;;;;;;;18.73;8.65;;;3.00;99.90;;;;;;5063349;28;20119;-74
2021/01/03 08:51:25;;;;;;;22.17;8.98;;;3.00;99.90;;;;;;5063548;28;20540;-74
2021/01/03 08:54:00;;;;;;;17.80;8.38;;;3.00;99.90;;;;;;5059600;28;20111;-74
2021/01/03 08:56:35;;;;;;;17.90;8.82;;;3.00;99.90;;;;;;5054947;28;20032;-74
2021/01/03 08:59:01;;;;;;;15.15;8.02;;;3.00;99.90;;;;;;5057291;28;20033;-74
2021/01/03 09:01:33;;;;;;;16.15;8.57;;;3.00;99.90;;;;;;5064245;28;20031;-74
2021/01/03 09:04:05;;;;;;;18.60;8.20;;;3.00;99.90;;;;;;5067037;28;20532;-74
2021/01/03 09:06:31;;;;;;;;;;;3.00;99.90;;;;;;5064841;28;20519;-74
2021/01/03 09:08:57;;;;;;;15.30;7.60;;;3.00;99.90;;;;;;5064235;28;19963;-74
2021/01/03 09:11:31;;;;;;;14.65;7.35;;;2.90;99.90;;;;;;5059474;28;20025;-73
2021/01/03 09:14:20;;;;;;;14.93;7.60;;;3.00;99.90;;;;;;5057453;28;20066;-73
2021/01/03 09:17:04;;;;;;;17.05;7.72;;;2.90;99.90;;;;;;5064823;28;20100;-74
2021/01/03 09:20:03;;;;;;;13.55;7.65;;;2.90;99.90;;;;;;5061569;28;20036;-73
2021/01/03 09:22:35;;;;;;;17.10;7.50;;;2.90;99.90;;;;;;5058371;28;20029;-75
2021/01/03 09:25:05;;;;;;;15.18;7.10;;;2.80;99.90;;;;;;5066766;28;20036;-73
2021/01/03 09:27:33;;;;;;;12.52;7.05;;;2.90;99.90;;;;;;5067294;28;20032;-73
2021/01/03 09:30:10;;;;;;;15.13;7.30;;;2.80;99.90;;;;;;5062335;28;20037;-73
2021/01/03 09:32:37;;;;;;;14.35;6.93;;;3.00;99.90;;;;;;5061131;28;20028;-73
2021/01/03 09:35:32;;;;;;;15.50;7.57;;;3.00;99.90;;;;;;5065182;28;20023;-73
2021/01/03 09:38:28;;;;;;;15.88;7.63;;;3.00;99.90;;;;;;5056241;28;20043;-73
2021/01/03 09:41:12;;;;;;;15.68;7.57;;;3.00;99.90;;;;;;5067320;28;20054;-73
2021/01/03 09:44:12;;;;;;;15.77;6.68;;;2.90;99.90;;;;;;5066571;28;20044;-73
2021/01/03 09:46:51;;;;;;;14.25;6.53;;;2.90;99.90;;;;;;5068700;28;20039;-74
2021/01/03 09:49:25;;;;;;;13.52;6.55;;;2.90;99.90;;;;;;5064871;28;20020;-74
2021/01/03 09:51:59;;;;;;;14.88;7.20;;;2.90;99.90;;;;;;5064787;28;20028;-74
2021/01/03 09:54:33;;;;;;;17.50;6.70;;;3.00;99.90;;;;;;5065005;28;20399;-73
2021/01/03 09:56:58;;;;;;;14.82;7.28;;;2.90;99.90;;;;;;5063998;28;20490;-73
2021/01/03 09:59:24;;;;;;;20.85;7.40;;;2.90;99.90;;;;;;5052757;28;20017;-73
2021/01/03 10:01:50;;;;;;;13.70;6.93;;;2.90;99.90;;;;;;5063132;28;20472;-72
2021/01/03 10:04:24;;;;;;;14.20;7.45;;;2.90;99.90;;;;;;5049746;28;20404;-73
2021/01/03 10:06:56;;;;;;;12.52;6.78;;;2.90;99.90;;;;;;5060453;28;20410;-75
2021/01/03 10:09:24;;;;;;;13.85;7.13;;;2.90;99.90;;;;;;5052480;28;20025;-72
2021/01/03 10:11:52;;;;;;;14.90;6.50;;;3.00;99.90;;;;;;5049033;28;20499;-74
2021/01/03 10:14:28;;;;;;;13.55;6.57;;;3.00;99.90;;;;;;5057127;28;20472;-76
2021/01/03 10:16:54;;;;;;;15.25;7.30;;;3.00;99.90;;;;;;5056833;28;20040;-75
2021/01/03 10:19:21;;;;;;;13.18;6.50;;;3.00;99.90;;;;;;5053478;28;20429;-74
2021/01/03 10:21:48;;;;;;;11.68;6.20;;;3.00;99.90;;;;;;5048051;28;20028;-74
2021/01/03 10:24:21;;;;;;;16.27;7.28;;;2.90;99.90;;;;;;5050930;28;20025;-75
2021/01/03 10:27:13;;;;;;;14.05;6.70;;;3.00;99.90;;;;;;5058287;28;20040;-74
2021/01/03 10:29:40;;;;;;;14.50;7.05;;;3.00;99.90;;;;;;5064258;28;20033;-74
2021/01/03 10:32:06;;;;;;;15.40;6.80;;;3.00;99.90;;;;;;5066511;28;20051;-74
2021/01/03 10:34:31;;;;;;;11.52;6.13;;;3.00;99.90;;;;;;5061405;28;20020;-74
2021/01/03 10:36:58;;;;;;;10.68;6.13;;;3.10;99.90;;;;;;5063993;28;20024;-74
2021/01/03 10:39:26;;;;;;;11.65;6.28;;;3.10;99.90;;;;;;5061366;28;20058;-74
2021/01/03 10:41:51;;;;;;;12.52;6.18;;;3.10;99.90;;;;;;5066104;28;20434;-74
2021/01/03 10:44:17;;;;;;;12.05;5.85;;;3.10;99.90;;;;;;5060814;28;20028;-74
2021/01/03 10:46:47;;;;;;;13.52;6.13;;;3.00;99.90;;;;;;5064035;28;20032;-75
2021/01/03 10:49:13;;;;;;;13.90;6.95;;;3.10;99.90;;;;;;5064377;28;20036;-75
2021/01/03 10:51:40;;;;;;;10.57;6.28;;;3.10;99.90;;;;;;5064425;28;20036;-74
2021/01/03 10:54:07;;;;;;;12.05;6.35;;;3.10;99.90;;;;;;5061617;28;20111;-74
2021/01/03 10:56:33;;;;;;;13.32;6.35;;;3.10;99.90;;;;;;5061961;28;20726;-75
2021/01/03 10:58:59;;;;;;;15.52;7.13;;;3.20;99.90;;;;;;5063586;28;20116;-74
2021/01/03 11:01:25;;;;;;;13.90;6.47;;;3.20;99.90;;;;;;5061833;28;20031;-74
2021/01/03 11:03:51;;;;;;;13.18;6.40;;;3.20;99.90;;;;;;5064860;28;20577;-74
2021/01/03 11:06:17;;;;;;;11.10;5.68;;;3.20;99.90;;;;;;5063453;28;20039;-74
2021/01/03 11:08:43;;;;;;;13.13;6.22;;;3.20;99.90;;;;;;5062963;28;20056;-74
2021/01/03 11:11:09;;;;;;;14.30;6.70;;;3.20;99.90;;;;;;5063895;28;20094;-75
2021/01/03 11:13:36;;;;;;;15.75;8.32;;;3.10;99.90;;;;;;5061478;28;20021;-74
2021/01/03 11:16:02;;;;;;;12.32;6.68;;;3.30;99.90;;;;;;5062158;28;20071;-74
2021/01/03 11:18:27;;;;;;;11.88;6.60;;;3.20;99.90;;;;;;5063594;28;20056;-75
2021/01/03 11:20:53;;;;;;;11.85;6.20;;;3.20;99.90;;;;;;5053845;28;20037;-74
2021/01/03 11:23:19;;;;;;;14.05;6.00;;;3.10;99.90;;;;;;5064563;28;20052;-75
2021/01/03 11:25:46;;;;;;;11.55;6.25;;;3.10;99.90;;;;;;5062079;28;20361;-74
2021/01/03 11:28:11;;;;;;;10.52;5.57;;;3.10;99.90;;;;;;5063547;28;20101;-74
2021/01/03 11:30:37;;;;;;;10.02;5.80;;;3.10;99.90;;;;;;5058645;28;20499;-74
2021/01/03 11:33:02;;;;;;;11.57;5.88;;;3.10;99.90;;;;;;5066204;28;20387;-74
2021/01/03 11:35:28;;;;;;;8.98;5.45;;;3.20;99.90;;;;;;5064203;28;20047;-74
2021/01/03 11:37:53;;;;;;;12.60;6.15;;;3.20;99.90;;;;;;5064505;28;20490;-75
2021/01/03 11:40:19;;;;;;;12.30;5.78;;;3.20;99.90;;;;;;5067032;28;20031;-74
2021/01/03 11:42:44;;;;;;;11.10;5.78;;;3.20;99.90;;;;;;5067049;28;20032;-75
2021/01/03 11:45:19;;;;;;;9.93;5.35;;;3.20;99.90;;;;;;5066399;28;20426;-74
2021/01/03 11:47:45;;;;;;;8.95;5.30;;;3.10;99.90;;;;;;5066432;28;20020;-74
2021/01/03 11:50:14;;;;;;;9.18;5.38;;;3.20;99.90;;;;;;5062116;28;20043;-74
2021/01/03 11:52:39;;;;;;;9.50;5.10;;;3.20;99.90;;;;;;5059941;28;20024;-76
2021/01/03 11:55:07;;;;;;;10.43;5.57;;;3.10;99.90;;;;;;5066448;28;20062;-76
2021/01/03 11:57:33;;;;;;;8.85;5.00;;;3.10;99.90;;;;;;5067461;28;20032;-76
2021/01/03 11:59:58;;;;;;;8.68;5.20;;;3.10;99.90;;;;;;5067116;28;20406;-76
2021/01/03 12:02:24;;;;;;;9.32;4.80;;;3.20;99.90;;;;;;5062641;28;20024;-76
2021/01/03 12:04:49;;;;;;;10.48;4.88;;;3.20;99.90;;;;;;5064909;28;20020;-76
2021/01/03 12:07:18;;;;;;;12.70;5.72;;;3.30;99.90;;;;;;5066630;28;20024;-73
2021/01/03 12:09:44;;;;;;;8.27;4.95;;;3.30;99.90;;;;;;5066744;28;20146;-75
2021/01/03 12:12:13;;;;;;;8.25;4.90;;;3.30;99.90;;;;;;5066492;28;20025;-76
2021/01/03 12:14:40;;;;;;;10.25;5.20;;;3.20;99.90;;;;;;5062215;28;20020;-78
2021/01/03 12:17:11;;;;;;;8.38;4.95;;;3.20;99.90;;;;;;5065367;28;20099;-75
2021/01/03 12:19:37;;;;;;;8.43;5.50;;;3.20;99.90;;;;;;5067349;28;20024;-76
2021/01/03 12:22:05;;;;;;;9.68;4.75;;;3.20;99.90;;;;;;5065818;28;20015;-75
2021/01/03 12:24:30;;;;;;;9.52;4.90;;;3.20;99.90;;;;;;5066654;28;20060;-77
2021/01/03 12:26:56;;;;;;;8.52;5.10;;;3.20;99.90;;;;;;5065310;28;20052;-76
2021/01/03 12:29:23;;;;;;;9.00;5.00;;;3.20;99.90;;;;;;5066717;28;20483;-77
2021/01/03 12:31:52;;;;;;;9.50;5.25;;;3.10;99.90;;;;;;5066307;28;20076;-77
2021/01/03 12:34:20;;;;;;;7.97;4.70;;;3.20;99.90;;;;;;5067197;28;20024;-77
2021/01/03 12:36:46;;;;;;;8.98;4.43;;;3.10;99.90;;;;;;5068142;28;20028;-77
2021/01/03 12:39:13;;;;;;;8.18;4.50;;;3.20;99.90;;;;;;5063017;28;20037;-77
2021/01/03 12:41:39;;;;;;;8.05;4.78;;;3.20;99.90;;;;;;5056527;28;20040;-76
2021/01/03 12:44:07;;;;;;;12.15;6.40;;;3.30;99.90;;;;;;5063085;28;20638;-76
2021/01/03 12:46:35;;;;;;;7.82;4.38;;;3.30;99.90;;;;;;5063239;28;20051;-76
2021/01/03 12:49:00;;;;;;;9.85;4.82;;;3.30;99.90;;;;;;5063585;28;20178;-76
2021/01/03 12:51:26;;;;;;;8.95;4.45;;;3.20;99.90;;;;;;5057208;28;20024;-76
2021/01/03 12:53:53;;;;;;;8.73;4.72;;;3.20;99.90;;;;;;5063758;28;20021;-76
2021/01/03 12:56:22;;;;;;;9.77;4.93;;;3.20;99.90;;;;;;5059812;28;20017;-76
2021/01/03 12:58:48;;;;;;;7.63;4.50;;;3.20;99.90;;;;;;5063533;28;20120;-76
2021/01/03 13:01:14;;;;;;;7.70;4.78;;;3.30;99.90;;;;;;5055308;28;20050;-77
2021/01/03 13:03:39;;;;;;;6.35;3.88;;;3.30;99.90;;;;;;5060389;28;20040;-76